Time;durP1;ratioP1;P1;durP2;ratioP2;P2;SDS_P1;SDS_P2;PMS_P1;PMS_P2;Temp;Humidity;BMP_temperature;BMP_pressure;BME280_temperature;BME280_humidity;BME280_pressure;Samples;Min_cycle;Max_cycle;Signal;HPM_P1;HPM_P2
2022/04/13 00:00:02;;;;;;;10.63;6.47;;;;;;;11.06;100.00;-19454.88;5018234;28;20025;-70
2022/04/13 00:02:27;;;;;;;12.47;6.63;;;;;;;11.01;100.00;-19453.69;5024559;28;20458;-70
2022/04/13 00:04:53;;;;;;;10.60;6.30;;;;;;;10.95;100.00;-19452.09;5015376;28;20036;-70
2022/04/13 00:07:18;;;;;;;12.97;6.53;;;;;;;10.89;100.00;-19450.53;5023094;28;20030;-70
2022/04/13 00:09:44;;;;;;;8.63;5.87;;;;;;;10.90;100.00;-19450.78;5024069;28;20374;-70
2022/04/13 00:12:09;;;;;;;14.73;6.53;;;;;;;11.01;100.00;-19453.69;5017934;28;20040;-70
2022/04/13 00:14:35;;;;;;;9.97;6.80;;;;;;;10.97;100.00;-19452.63;4996186;28;20061;-70
2022/04/13 00:17:00;;;;;;;11.77;6.40;;;;;;;10.91;100.00;-19451.06;5020180;28;20025;-70
2022/04/13 00:19:26;;;;;;;12.53;7.00;;;;;;;10.81;100.00;-19448.53;5026902;28;20378;-70
2022/04/13 00:21:53;;;;;;;9.77;7.20;;;;;;;10.79;100.00;-19448.03;5020579;28;20124;-70
2022/04/13 00:24:18;;;;;;;10.37;6.77;;;;;;;10.80;100.00;-19448.28;5020749;28;20408;-70
2022/04/13 00:26:43;;;;;;;14.27;7.63;;;;;;;10.68;100.00;-19445.00;5018752;28;20075;-70
2022/04/13 00:29:09;;;;;;;10.60;6.93;;;;;;;10.67;100.00;-19444.88;5023060;28;20087;-70
2022/04/13 00:31:35;;;;;;;11.00;6.90;;;;;;;10.58;100.00;-19442.50;5017262;28;20560;-70
2022/04/13 00:34:00;;;;;;;10.47;7.10;;;;;;;10.52;100.00;-19441.03;5021588;28;20029;-70
2022/04/13 00:36:26;;;;;;;15.33;7.53;;;;;;;10.63;100.00;-19443.69;5028144;28;20117;-70
2022/04/13 00:38:51;;;;;;;12.37;7.43;;;;;;;10.69;100.00;-19445.38;5026202;28;20037;-70
2022/04/13 00:41:21;;;;;;;14.13;7.47;;;;;;;10.69;100.00;-19445.38;5030192;28;20067;-70
2022/04/13 00:44:04;;;;;;;12.47;7.67;;;;;;;10.73;100.00;-19446.31;5024370;28;20513;-70
2022/04/13 00:46:29;;;;;;;11.20;7.00;;;;;;;10.75;100.00;-19446.84;5023302;28;20033;-70
2022/04/13 00:48:55;;;;;;;13.20;7.20;;;;;;;10.88;100.00;-19450.13;5017243;28;20436;-70
2022/04/13 00:51:20;;;;;;;11.27;7.07;;;;;;;10.80;100.00;-19448.16;5029031;28;20136;-70
2022/04/13 00:53:47;;;;;;;11.70;7.30;;;;;;;10.70;100.00;-19445.53;5026767;28;20525;-70
2022/04/13 00:56:16;;;;;;;11.70;7.10;;;;;;;10.69;100.00;-19445.38;5027514;28;20025;-70
2022/04/13 00:58:44;;;;;;;12.77;7.20;;;;;;;10.66;100.00;-19444.47;5030071;28;20030;-70
2022/04/13 01:01:09;;;;;;;12.93;7.07;;;;;;;10.60;100.00;-19442.88;5014464;28;20046;-69
2022/04/13 01:03:36;;;;;;;13.73;7.47;;;;;;;10.53;100.00;-19441.19;5018903;28;20026;-70
2022/04/13 01:06:03;;;;;;;12.13;7.20;;;;;;;10.49;100.00;-19440.13;5031389;28;20014;-70
2022/04/13 01:08:29;;;;;;;11.70;6.83;;;;;;;10.44;100.00;-19438.94;5015790;28;20371;-70
2022/04/13 01:10:56;;;;;;;11.77;6.37;;;;;;;10.50;100.00;-19440.53;5026873;28;20096;-70
2022/04/13 01:13:22;;;;;;;9.97;6.80;;;;;;;10.63;100.00;-19443.69;5023006;28;20028;-70
2022/04/13 01:15:47;;;;;;;10.17;5.67;;;;;;;10.62;100.00;-19443.41;5027932;28;20033;-70
2022/04/13 01:18:14;;;;;;;8.67;5.90;;;;;;;10.60;100.00;-19443.03;5024912;28;20700;-70
2022/04/13 01:20:48;;;;;;;11.13;6.17;;;;;;;10.54;100.00;-19441.56;5020119;28;20070;-70
2022/04/13 01:23:14;;;;;;;10.73;5.50;;;;;;;10.55;100.00;-19441.84;5019780;28;20022;-70
2022/04/13 01:25:47;;;;;;;10.60;6.30;;;;;;;10.38;100.00;-19437.38;5023938;28;20044;-70
2022/04/13 01:28:12;;;;;;;10.53;5.90;;;;;;;10.43;100.00;-19438.69;5027181;28;20082;-70
2022/04/13 01:30:38;;;;;;;11.83;6.30;;;;;;;10.36;100.00;-19436.84;5026542;28;20489;-70
2022/04/13 01:33:03;;;;;;;11.37;6.10;;;;;;;10.18;100.00;-19432.09;5019330;28;20022;-70
2022/04/13 01:35:29;;;;;;;12.23;6.73;;;;;;;10.10;100.00;-19430.13;5022689;28;20708;-70
2022/04/13 01:37:55;;;;;;;13.10;6.73;;;;;;;10.08;100.00;-19429.47;5030042;28;20064;-70
2022/04/13 01:40:20;;;;;;;10.77;6.70;;;;;;;9.96;100.00;-19426.56;5023526;28;20032;-70
2022/04/13 01:42:47;;;;;;;11.33;6.90;;;;;;;9.81;100.00;-19422.63;5028121;28;20029;-70
2022/04/13 01:45:19;;;;;;;11.53;6.77;;;;;;;9.79;100.00;-19421.94;5026605;28;20025;-70
2022/04/13 01:47:46;;;;;;;13.63;7.00;;;;;;;9.78;100.00;-19421.81;5027485;28;20489;-70
2022/04/13 01:50:11;;;;;;;12.60;6.30;;;;;;;9.77;100.00;-19421.56;5018597;28;20036;-70
2022/04/13 01:52:37;;;;;;;12.00;7.23;;;;;;;9.79;100.00;-19422.09;5020070;28;20033;-70
2022/04/13 01:55:02;;;;;;;11.00;6.40;;;;;;;9.96;100.00;-19426.44;5000665;28;20048;-70
2022/04/13 01:57:28;;;;;;;11.70;6.57;;;;;;;9.90;100.00;-19424.97;5029017;28;20482;-70
2022/04/13 01:59:53;;;;;;;18.57;7.80;;;;;;;9.86;100.00;-19423.78;5030014;28;20037;-70
2022/04/13 02:02:19;;;;;;;11.03;6.33;;;;;;;9.60;100.00;-19417.09;5026352;28;20045;-70
2022/04/13 02:04:44;;;;;;;15.13;7.77;;;;;;;9.48;100.00;-19413.91;5029466;28;20037;-70
2022/04/13 02:07:10;;;;;;;16.07;7.67;;;;;;;9.45;100.00;-19413.13;5029325;28;20025;-70
2022/04/13 02:09:35;;;;;;;15.70;7.03;;;;;;;9.41;100.00;-19412.22;5025588;28;20036;-70
2022/04/13 02:12:01;;;;;;;12.60;7.03;;;;;;;9.33;100.00;-19410.22;5015174;28;20041;-70
2022/04/13 02:14:26;;;;;;;14.77;6.90;;;;;;;9.27;100.00;-19408.66;5022409;28;20532;-70
2022/04/13 02:16:52;;;;;;;21.17;7.03;;;;;;;9.27;100.00;-19408.66;5019396;28;20030;-70
2022/04/13 02:19:18;;;;;;;17.83;6.90;;;;;;;9.35;100.00;-19410.75;5028321;28;20038;-70
2022/04/13 02:21:43;;;;;;;14.37;6.53;;;;;;;9.54;100.00;-19415.50;5029957;28;20033;-70
2022/04/13 02:24:09;;;;;;;16.00;6.83;;;;;;;9.50;100.00;-19414.44;5026942;28;20033;-70
2022/04/13 02:26:34;;;;;;;16.63;6.93;;;;;;;9.42;100.00;-19412.34;5018570;28;20625;-70
2022/04/13 02:29:00;;;;;;;15.87;6.77;;;;;;;9.38;100.00;-19411.53;5025324;28;20037;-70
2022/04/13 02:31:25;;;;;;;13.53;7.00;;;;;;;9.43;100.00;-19412.59;5023373;28;20045;-70
2022/04/13 02:33:55;;;;;;;14.97;6.50;;;;;;;9.46;100.00;-19413.53;5024662;28;20064;-70
2022/04/13 02:36:21;;;;;;;12.60;6.97;;;;;;;9.46;100.00;-19413.53;5024003;28;20126;-70
2022/04/13 02:38:46;;;;;;;15.23;6.73;;;;;;;9.38;100.00;-19411.53;5024257;28;20053;-70
2022/04/13 02:41:12;;;;;;;14.77;6.87;;;;;;;9.22;100.00;-19407.34;5023013;28;20033;-70
2022/04/13 02:43:38;;;;;;;17.03;6.97;;;;;;;9.19;100.00;-19406.53;5022932;28;20513;-70
2022/04/13 02:46:03;;;;;;;11.87;6.73;;;;;;;9.21;100.00;-19406.94;5021672;28;20037;-70
2022/04/13 02:48:29;;;;;;;11.60;7.13;;;;;;;8.94;100.00;-19400.09;5021678;28;22087;-70
2022/04/13 02:50:56;;;;;;;10.60;7.00;;;;;;;8.83;100.00;-19397.19;5021224;28;20032;-70
2022/04/13 02:53:22;;;;;;;10.90;7.30;;;;;;;8.90;100.00;-19398.91;5005737;28;20823;-70
2022/04/13 02:55:48;;;;;;;12.13;6.77;;;;;;;8.98;100.00;-19401.00;5022230;28;20028;-70
2022/04/13 02:58:13;;;;;;;14.70;7.07;;;;;;;9.03;100.00;-19402.31;5025209;28;20036;-70
2022/04/13 03:00:39;;;;;;;12.50;7.97;;;;;;;9.07;100.00;-19403.38;5019985;28;20476;-69
2022/04/13 03:03:04;;;;;;;11.93;6.97;;;;;;;9.09;100.00;-19403.91;5024973;28;20108;-70
2022/04/13 03:05:30;;;;;;;11.60;6.40;;;;;;;9.22;100.00;-19407.19;5021038;28;20722;-70
2022/04/13 03:07:55;;;;;;;11.73;6.67;;;;;;;9.39;100.00;-19411.69;5014882;28;20033;-70
2022/04/13 03:10:21;;;;;;;11.87;6.53;;;;;;;9.55;100.00;-19415.91;5023330;28;20044;-70
2022/04/13 03:12:47;;;;;;;11.20;6.83;;;;;;;9.60;100.00;-19417.22;5025302;28;20037;-70
2022/04/13 03:15:12;;;;;;;9.73;5.93;;;;;;;9.68;100.00;-19419.19;5022435;28;20041;-70
2022/04/13 03:17:38;;;;;;;10.30;6.20;;;;;;;9.73;100.00;-19420.50;5018586;28;20461;-70
2022/04/13 03:20:04;;;;;;;11.47;6.57;;;;;;;9.77;100.00;-19421.56;5020624;28;20034;-70
2022/04/13 03:22:30;;;;;;;10.93;6.33;;;;;;;9.67;100.00;-19418.91;5018319;28;20112;-70
2022/04/13 03:24:55;;;;;;;10.47;6.30;;;;;;;9.61;100.00;-19417.34;5018144;28;20109;-70
2022/04/13 03:27:21;;;;;;;11.30;6.60;;;;;;;9.47;100.00;-19413.66;5025087;28;20029;-70
2022/04/13 03:29:46;;;;;;;10.40;6.20;;;;;;;9.42;100.00;-19412.47;5026720;28;20438;-70
2022/04/13 03:32:12;;;;;;;11.73;6.10;;;;;;;9.25;100.00;-19408.13;5026782;28;20096;-70
2022/04/13 03:34:37;;;;;;;11.43;7.00;;;;;;;9.12;100.00;-19404.56;5023883;28;20136;-70
2022/04/13 03:37:03;;;;;;;9.93;6.97;;;;;;;8.96;100.00;-19400.59;5023203;28;20523;-70
2022/04/13 03:39:30;;;;;;;11.37;6.73;;;;;;;8.91;100.00;-19399.16;5025940;28;20120;-70
2022/04/13 03:41:55;;;;;;;11.80;7.00;;;;;;;8.99;100.00;-19401.28;5024132;28;20451;-70
2022/04/13 03:44:21;;;;;;;11.70;7.30;;;;;;;8.95;100.00;-19400.22;5024159;28;20071;-70
2022/04/13 03:46:47;;;;;;;17.73;6.97;;;;;;;8.79;100.00;-19396.25;5020260;28;20025;-70
2022/04/13 03:49:12;;;;;;;11.70;7.30;;;;;;;8.70;100.00;-19393.88;5027839;28;20029;-70
2022/04/13 03:51:38;;;;;;;12.30;6.70;;;;;;;8.64;100.00;-19392.16;5022725;28;20087;-70
2022/04/13 03:54:03;;;;;;;13.13;7.53;;;;;;;8.58;100.00;-19390.72;5019291;28;20056;-69
2022/04/13 03:56:29;;;;;;;11.20;6.87;;;;;;;8.55;100.00;-19389.94;5018887;28;20029;-70
2022/04/13 03:58:57;;;;;;;11.43;7.57;;;;;;;8.48;100.00;-18347.66;5020824;28;20033;-69
2022/04/13 04:01:22;;;;;;;15.00;7.50;;;;;;;8.41;100.00;-5198.34;5027261;28;20041;-69
2022/04/13 04:03:47;;;;;;;12.47;7.60;;;;;;;8.39;100.00;9378.81;5028794;28;20095;-69
2022/04/13 04:06:13;;;;;;;20.80;13.73;;;;;;;8.52;100.00;22396.16;5031811;28;20133;-69
2022/04/13 04:08:38;;;;;;;15.57;8.20;;;;;;;8.66;100.00;19468.53;5024982;28;20104;-69
2022/04/13 04:11:04;;;;;;;10.50;7.00;;;;;;;8.72;100.00;9710.66;5018418;28;20025;-70
2022/04/13 04:13:29;;;;;;;12.10;7.33;;;;;;;8.75;100.00;3544.34;5028436;28;20128;-69
2022/04/13 04:15:54;;;;;;;11.73;6.90;;;;;;;8.67;100.00;2895.03;5027315;28;20047;-69
2022/04/13 04:18:20;;;;;;;12.30;6.57;;;;;;;8.58;100.00;5488.06;5029363;28;20086;-70
2022/04/13 04:20:45;;;;;;;11.87;7.40;;;;;;;8.51;100.00;3217.47;5023177;28;20035;-70
2022/04/13 04:23:10;;;;;;;11.63;7.30;;;;;;;8.59;100.00;3866.72;5023947;28;20529;-70
2022/04/13 04:25:36;;;;;;;12.53;7.80;;;;;;;8.62;100.00;1274.22;5029062;28;20033;-69
2022/04/13 04:28:03;;;;;;;11.57;7.80;;;;;;;8.63;100.00;1922.34;5026166;28;20397;-70
2022/04/13 04:30:31;;;;;;;15.17;7.53;;;;;;;8.67;100.00;3543.44;5019578;28;20069;-70
2022/04/13 04:32:57;;;;;;;13.47;7.40;;;;;;;8.67;100.00;6787.34;5030080;28;20037;-69
2022/04/13 04:35:22;;;;;;;13.37;7.73;;;;;;;8.62;100.00;11008.00;5024888;28;20378;-70
2022/04/13 04:37:48;;;;;;;13.47;7.60;;;;;;;8.60;100.00;16210.44;5019996;28;20033;-69
2022/04/13 04:40:14;;;;;;;12.80;7.03;;;;;;;8.58;100.00;19139.94;5023143;28;20086;-70
2022/04/13 04:42:49;;;;;;;12.13;7.80;;;;;;;8.65;100.00;19142.38;5027404;28;20029;-69
2022/04/13 04:45:19;;;;;;;13.00;8.27;;;;;;;8.70;100.00;25013.69;5020811;28;20106;-70
2022/04/13 04:47:45;;;;;;;12.47;8.03;;;;;;;8.66;100.00;34161.44;5020845;28;20033;-69
2022/04/13 04:50:10;;;;;;;15.13;7.97;;;;;;;8.68;100.00;36454.13;5016423;28;20022;-69
2022/04/13 04:52:42;;;;;;;16.03;8.80;;;;;;;8.71;100.00;38094.25;5021555;28;20087;-69
2022/04/13 04:55:09;;;;;;;19.87;8.30;;;;;;;8.73;100.00;39406.53;5018304;28;20025;-69
2022/04/13 04:57:35;;;;;;;14.40;7.97;;;;;;;8.75;100.00;40391.47;5021949;28;20036;-69
2022/04/13 05:00:00;;;;;;;17.80;8.50;;;;;;;8.78;100.00;40721.22;5029156;28;20021;-69
2022/04/13 05:02:25;;;;;;;14.43;7.80;;;;;;;8.78;100.00;41377.13;5030883;28;20056;-70
2022/04/13 05:04:51;;;;;;;16.43;8.60;;;;;;;8.85;100.00;44663.94;5023090;28;20045;-69
2022/04/13 05:07:16;;;;;;;16.60;7.60;;;;;;;8.81;100.00;52550.38;5026223;28;20071;-69
2022/04/13 05:09:42;;;;;;;17.03;8.03;;;;;;;8.80;100.00;58808.59;5026227;28;20544;-69
2022/04/13 05:12:08;;;;;;;18.57;7.87;;;;;;;8.79;100.00;60126.63;5025519;28;20434;-69
2022/04/13 05:14:33;;;;;;;10.97;7.13;;;;;;;8.81;100.00;62768.50;5006503;28;20029;-70
2022/04/13 05:16:59;;;;;;;16.00;7.83;;;;;;;8.89;100.00;69054.63;5026448;28;20542;-69
2022/04/13 05:19:24;;;;;;;13.37;7.80;;;;;;;9.00;100.00;70391.41;5026625;28;20040;-70
2022/04/13 05:21:49;;;;;;;16.73;7.63;;;;;;;9.08;100.00;72056.56;5020519;28;20018;-69
2022/04/13 05:24:15;;;;;;;13.50;7.23;;;;;;;9.19;100.00;70414.84;5024589;28;20022;-70
2022/04/13 05:26:40;;;;;;;12.50;6.70;;;;;;;9.39;100.00;69115.16;5022027;28;20727;-70
2022/04/13 05:29:05;;;;;;;12.80;7.23;;;;;;;9.57;100.00;69467.50;5024279;28;20441;-69
2022/04/13 05:31:31;;;;;;;16.00;7.30;;;;;;;9.91;100.00;60573.75;5025447;28;20056;-70
2022/04/13 05:33:56;;;;;;;13.13;7.10;;;;;;;10.23;100.00;43456.69;5026619;28;20113;-69
2022/04/13 05:36:22;;;;;;;15.77;7.10;;;;;;;10.54;100.00;24444.34;5021996;28;20029;-69
2022/04/13 05:38:47;;;;;;;15.83;6.80;;;;;;;10.90;100.00;966.50;5015133;28;20437;-70
2022/04/13 05:41:12;;;;;;;10.80;6.77;;;;;;;11.11;100.00;-19456.19;5019086;28;20979;-69
2022/04/13 05:43:38;;;;;;;14.47;6.77;;;;;;;11.12;100.00;-19456.56;5025696;28;20053;-70
2022/04/13 05:46:05;;;;;;;12.63;6.80;;;;;;;11.43;100.00;-19464.47;5022860;28;20100;-70
2022/04/13 05:48:31;;;;;;;14.00;6.00;;;;;;;11.97;100.00;-19478.53;5024143;28;20063;-69
2022/04/13 05:50:58;;;;;;;12.90;6.57;;;;;;;12.16;100.00;-19483.38;5029300;28;20083;-69
2022/04/13 05:53:24;;;;;;;9.80;5.40;;;;;;;12.66;100.00;-19496.25;5020640;28;20025;-69
2022/04/13 05:55:55;;;;;;;10.73;5.97;;;;;;;12.72;100.00;-19497.81;5027209;28;20040;-70
2022/04/13 05:58:25;;;;;;;10.60;5.57;;;;;;;12.36;100.00;-19488.50;5022534;28;20056;-69
2022/04/13 06:00:50;;;;;;;8.60;5.80;;;;;;;12.03;100.00;-19479.97;5024807;28;20040;-70
2022/04/13 06:03:17;;;;;;;12.70;6.30;;;;;;;11.56;100.00;-19467.88;5028167;28;20033;-70
2022/04/13 06:05:43;;;;;;;11.37;6.43;;;;;;;11.22;100.00;-19458.94;5027431;28;20112;-70
2022/04/13 06:08:08;;;;;;;12.97;7.00;;;;;;;10.85;100.00;-19449.59;5016099;28;20092;-69
2022/04/13 06:10:33;;;;;;;14.13;7.10;;;;;;;10.79;100.00;-19447.88;5024016;28;20018;-70
2022/04/13 06:12:59;;;;;;;9.33;6.77;;;;;;;10.84;100.00;-19449.22;5019357;28;20497;-69
2022/04/13 06:15:24;;;;;;;14.17;6.77;;;;;;;10.94;100.00;-19451.84;5019785;28;20539;-70
2022/04/13 06:17:50;;;;;;;13.00;6.80;;;;;;;11.10;100.00;-19455.91;5026229;28;20029;-69
2022/04/13 06:20:15;;;;;;;12.67;6.90;;;;;;;11.28;100.00;-19460.50;5024934;28;20160;-69
2022/04/13 06:22:42;;;;;;;10.57;7.00;;;;;;;11.51;100.00;-19466.56;5024452;28;20486;-70
2022/04/13 06:25:10;;;;;;;12.13;7.27;;;;;;;11.80;100.00;-19473.94;5023504;28;20039;-69
2022/04/13 06:27:36;;;;;;;14.63;7.43;;;;;;;12.14;100.00;-19482.72;5021292;28;20060;-69
2022/04/13 06:30:02;;;;;;;14.23;7.23;;;;;;;12.36;100.00;-19488.38;5022899;28;20036;-69
2022/04/13 06:32:32;;;;;;;13.07;7.40;;;;;;;12.91;100.00;-19502.81;5024435;28;20422;-70
2022/04/13 06:34:59;;;;;;;13.23;7.80;;;;;;;13.49;100.00;-19517.78;5021711;28;20037;-70
2022/04/13 06:37:25;;;;;;;11.50;7.10;;;;;;;14.18;100.00;-19535.47;5018826;28;20091;-69
2022/04/13 06:39:50;;;;;;;11.05;6.30;;;;;;;15.04;100.00;-19557.59;5021277;28;20433;-69
2022/04/13 06:42:15;;;;;;;12.93;5.65;;;;;;;15.64;100.00;-19573.06;5020697;28;20030;-70
2022/04/13 06:44:41;;;;;;;9.55;5.60;;;;;;;16.34;100.00;-19591.09;5023269;28;20510;-70
2022/04/13 06:47:06;;;;;;;9.70;5.53;;;;;;;16.80;100.00;-19602.84;5025854;28;20493;-69
2022/04/13 06:49:32;;;;;;;10.45;5.50;;;;;;;16.89;100.00;-19605.19;5020795;28;20048;-70
2022/04/13 06:51:57;;;;;;;7.20;5.13;;;;;;;16.51;100.00;-19595.41;5022760;28;20064;-69
2022/04/13 06:54:23;;;;;;;10.23;5.50;;;;;;;16.40;100.00;-19592.66;5019287;28;20427;-69
2022/04/13 06:56:48;;;;;;;10.32;5.47;;;;;;;16.32;100.00;-19590.56;5028282;28;20128;-70
2022/04/13 06:59:13;;;;;;;9.90;5.43;;;;;;;16.02;100.00;-19582.72;5003487;28;20075;-69
2022/04/13 07:01:39;;;;;;;9.05;5.65;;;;;;;15.95;100.00;-19580.88;5024813;28;20042;-70
2022/04/13 07:04:05;;;;;;;11.13;5.55;;;;;;;15.40;100.00;-19566.75;5019413;28;20030;-69
2022/04/13 07:06:30;;;;;;;9.45;5.45;;;;;;;15.36;100.00;-19565.72;5024888;28;20042;-70
2022/04/13 07:08:55;;;;;;;11.90;5.90;;;;;;;15.14;100.00;-19560.22;5017072;28;20040;-70
2022/04/13 07:11:21;;;;;;;10.15;5.28;;;;;;;14.99;100.00;-19556.16;5023779;28;20482;-69
2022/04/13 07:13:46;;;;;;;11.10;5.55;;;;;;;15.16;100.00;-19560.75;5017444;28;20032;-70
2022/04/13 07:16:11;;;;;;;14.10;6.10;;;;;;;15.70;100.00;-19574.63;5025765;28;20091;-70
2022/04/13 07:18:37;;;;;;;13.10;6.13;;;;;;;16.69;100.00;-19599.97;5004246;28;20252;-70
2022/04/13 07:21:02;;;;;;;13.77;5.65;;;;;;;17.65;100.00;-19624.50;5027134;28;20061;-70
2022/04/13 07:23:28;;;;;;;12.38;5.20;;;;;;;18.39;100.00;-19643.56;5013351;28;20053;-70
2022/04/13 07:25:53;;;;;;;12.45;4.85;;;;;;;19.31;100.00;-19667.25;5025488;28;20390;-70
2022/04/13 07:28:20;;;;;;;12.02;4.85;;;;;;;19.03;100.00;-19659.97;5026273;28;20233;-70
2022/04/13 07:30:45;;;;;;;8.65;4.57;;;;;;;18.65;100.00;-19650.34;5024990;28;20053;-70
2022/04/13 07:33:11;;;;;;;11.07;4.80;;;;;;;19.16;100.00;-19663.34;5021831;28;20568;-70
2022/04/13 07:35:36;;;;;;;9.23;4.22;;;;;;;18.93;100.00;-19657.50;5002507;28;20485;-69
2022/04/13 07:38:02;;;;;;;9.60;4.20;;;;;;;19.15;100.00;-19663.09;5027628;28;20083;-70
2022/04/13 07:40:27;;;;;;;13.38;4.57;;;;;;;20.05;100.00;-19686.00;5023604;28;20061;-70
2022/04/13 07:42:53;;;;;;;14.70;5.18;;;;;;;20.20;100.00;-19689.91;5028014;28;20493;-70
2022/04/13 07:45:18;;;;;;;8.32;4.55;;;;;;;18.63;100.00;-19649.69;5020712;28;20756;-71
2022/04/13 07:47:44;;;;;;;10.40;4.53;;;;;;;18.33;100.00;-19642.13;5029662;28;20029;-70
2022/04/13 07:50:13;;;;;;;13.13;5.05;;;;;;;19.49;100.00;-19671.81;5023023;28;20100;-71
2022/04/13 07:52:40;;;;;;;12.15;4.85;;;;;;;19.56;100.00;-19673.50;5024757;28;20500;-71
2022/04/13 07:55:09;;;;;;;9.95;4.78;;;;;;;18.88;100.00;-19656.06;5021920;28;20024;-70
2022/04/13 07:57:35;;;;;;;12.38;5.53;;;;;;;19.24;100.00;-19665.44;5026788;28;20553;-70
2022/04/13 08:00:01;;;;;;;11.57;5.90;;;;;;;18.59;100.00;-19648.78;5029129;28;20465;-70
2022/04/13 08:02:27;;;;;;;10.65;5.10;;;;;;;19.07;100.00;-19661.00;5002848;28;20087;-71
2022/04/13 08:04:55;;;;;;;12.77;5.45;;;;;;;19.85;100.00;-19680.94;5024272;28;20494;-71
2022/04/13 08:07:21;;;;;;;11.20;5.40;;;;;;;20.22;100.00;-19690.28;5024211;28;20025;-70
2022/04/13 08:09:47;;;;;;;17.30;5.80;;;;;;;19.65;100.00;-19675.84;5024482;28;20021;-71
2022/04/13 08:12:15;;;;;;;11.63;5.60;;;;;;;20.83;100.00;-19705.88;5025732;28;20028;-71
2022/04/13 08:14:40;;;;;;;11.63;5.60;;;;;;;19.97;100.00;-19683.91;5019365;28;20022;-70
2022/04/13 08:17:06;;;;;;;12.25;6.05;;;;;;;19.65;100.00;-19675.72;5024049;28;20040;-70
2022/04/13 08:19:32;;;;;;;13.30;6.60;;;;;;;20.21;100.00;-19690.16;5023573;28;20196;-70
2022/04/13 08:21:57;;;;;;;13.18;6.50;;;;;;;21.04;100.00;-19711.47;5021275;28;20366;-70
2022/04/13 08:24:22;;;;;;;16.42;6.78;;;;;;;21.22;100.00;-19715.91;5018283;28;20513;-70
2022/04/13 08:26:48;;;;;;;12.88;6.28;;;;;;;21.67;100.00;-19727.31;5028655;28;20049;-70
2022/04/13 08:29:13;;;;;;;14.13;6.63;;;;;;;21.41;100.00;-19720.69;5025353;28;20025;-71
2022/04/13 08:31:38;;;;;;;12.55;6.18;;;;;;;22.24;93.13;-19741.97;5029048;28;20051;-71
2022/04/13 08:34:04;;;;;;;16.17;6.80;;;;;;;21.29;92.00;-19717.72;5023112;28;20190;-71
2022/04/13 08:36:29;;;;;;;14.18;7.20;;;;;;;20.76;100.00;-19704.19;5030446;28;20397;-70
2022/04/13 08:38:55;;;;;;;19.17;8.05;;;;;;;22.59;97.38;-19750.78;5028917;28;20030;-71
2022/04/13 08:41:39;;;;;;;22.23;8.82;;;;;;;22.72;86.42;-19754.16;4998130;28;20036;-71
2022/04/13 08:44:14;;;;;;;15.45;7.70;;;;;;;21.79;93.78;-19730.56;5028198;28;20030;-70
2022/04/13 08:46:40;;;;;;;22.25;8.02;;;;;;;22.15;95.54;-19739.66;5026360;28;20068;-70
2022/04/13 08:49:08;;;;;;;18.52;8.07;;;;;;;21.01;100.00;-19710.69;5032232;28;20520;-71
2022/04/13 08:51:36;;;;;;;17.67;8.02;;;;;;;21.23;100.00;-19716.28;5025171;28;20056;-70
2022/04/13 08:54:31;;;;;;;18.63;7.93;;;;;;;21.18;100.00;-19714.97;5020617;28;20033;-71
2022/04/13 08:56:57;;;;;;;21.42;9.02;;;;;;;21.94;100.00;-19734.31;5019874;28;20044;-70
2022/04/13 08:59:25;;;;;;;17.02;8.43;;;;;;;23.03;100.00;-19762.06;5023968;28;20041;-70
2022/04/13 09:02:17;;;;;;;15.38;7.93;;;;;;;22.42;79.41;-19746.53;5021627;28;20467;-71
2022/04/13 09:04:44;;;;;;;19.98;8.27;;;;;;;22.73;87.69;-19754.41;5022652;28;20037;-71
2022/04/13 09:07:13;;;;;;;17.40;8.27;;;;;;;23.06;95.15;-19762.84;5031779;28;20032;-71
2022/04/13 09:09:46;;;;;;;17.58;8.38;;;;;;;21.19;95.15;-19715.09;5026973;28;20051;-71
2022/04/13 09:12:13;;;;;;;16.55;8.30;;;;;;;20.28;100.00;-19691.97;5023056;28;20087;-70
2022/04/13 09:14:39;;;;;;;18.23;8.00;;;;;;;19.68;100.00;-19676.50;5027769;28;20028;-70
2022/04/13 09:17:06;;;;;;;23.35;8.18;;;;;;;20.57;100.00;-19699.25;5028075;28;20039;-70
2022/04/13 09:19:32;;;;;;;19.67;8.13;;;;;;;20.54;100.00;-19698.63;5023099;28;20033;-71
2022/04/13 09:21:58;;;;;;;20.65;7.32;;;;;;;20.45;100.00;-19696.41;5031791;28;20025;-70
2022/04/13 09:24:26;;;;;;;18.48;8.15;;;;;;;21.14;100.00;-19713.81;5021742;28;20617;-71
2022/04/13 09:26:52;;;;;;;16.60;7.80;;;;;;;20.63;100.00;-19700.81;5023590;28;20054;-71
2022/04/13 09:29:17;;;;;;;20.48;7.72;;;;;;;21.02;100.00;-19710.81;5031925;28;20118;-71
2022/04/13 09:31:43;;;;;;;17.13;8.27;;;;;;;22.03;100.00;-19736.66;5022142;28;20039;-71
2022/04/13 09:34:09;;;;;;;21.10;7.55;;;;;;;23.23;100.00;-19767.13;5019338;28;20040;-70
2022/04/13 09:36:35;;;;;;;16.73;7.63;;;;;;;23.32;93.02;-19769.56;5020930;28;20026;-71
2022/04/13 09:39:01;;;;;;;18.30;7.80;;;;;;;23.44;88.79;-19772.44;5022842;28;20124;-71
2022/04/13 09:41:34;;;;;;;13.85;7.05;;;;;;;22.23;100.00;-19741.84;5024777;28;20034;-70
2022/04/13 09:44:00;;;;;;;16.08;6.97;;;;;;;23.26;100.00;-19767.88;5006762;28;20741;-71
2022/04/13 09:46:28;;;;;;;18.80;8.05;;;;;;;22.41;96.39;-19746.25;5026498;28;20021;-71
2022/04/13 09:49:09;;;;;;;15.48;7.28;;;;;;;22.31;96.24;-19743.66;5025708;28;20063;-71
2022/04/13 09:51:39;;;;;;;14.77;7.32;;;;;;;22.67;90.48;-19752.88;5030612;28;20143;-70
2022/04/13 09:54:09;;;;;;;18.58;7.97;;;;;;;24.19;83.38;-19791.56;5023423;28;20029;-70
2022/04/13 09:56:46;;;;;;;18.48;8.02;;;;;;;23.60;87.56;-19776.56;5021254;28;20095;-71
2022/04/13 09:59:23;;;;;;;16.42;6.97;;;;;;;24.32;79.84;-19794.94;5015242;28;20044;-70
2022/04/13 10:01:49;;;;;;;18.63;6.68;;;;;;;23.24;88.80;-19767.38;5018236;28;20040;-71
2022/04/13 10:04:26;;;;;;;16.42;7.13;;;;;;;22.71;91.08;-19754.03;5015947;28;20033;-71
2022/04/13 10:07:12;;;;;;;16.23;7.57;;;;;;;22.45;90.49;-19747.28;5025488;28;20030;-70
2022/04/13 10:09:38;;;;;;;17.00;7.00;;;;;;;22.45;91.72;-19747.28;5022023;28;20033;-70
2022/04/13 10:12:04;;;;;;;14.95;7.60;;;;;;;22.27;100.00;-19742.75;5023806;28;20116;-70
2022/04/13 10:14:31;;;;;;;20.60;7.85;;;;;;;22.23;100.00;-19741.84;5022493;28;20064;-70
2022/04/13 10:17:07;;;;;;;16.50;7.45;;;;;;;22.64;90.52;-19752.22;5022488;28;20083;-70
2022/04/13 10:19:32;;;;;;;14.43;7.47;;;;;;;23.26;84.91;-19768.03;5018375;28;20067;-70
2022/04/13 10:21:59;;;;;;;16.77;7.55;;;;;;;24.64;79.73;-19802.94;5020207;28;21814;-70
2022/04/13 10:24:31;;;;;;;15.38;7.20;;;;;;;24.67;82.99;-19803.72;5019812;28;20045;-70
2022/04/13 10:26:59;;;;;;;;;;;;;;;24.33;79.06;-19795.19;5026469;28;20033;-70
2022/04/13 10:29:26;;;;;;;17.05;6.82;;;;;;;23.38;81.38;-19771.13;5014976;28;19992;-70
2022/04/13 10:32:12;;;;;;;15.23;6.45;;;;;;;22.85;81.25;-19757.41;5019732;28;20033;-70
2022/04/13 10:34:50;;;;;;;13.75;6.68;;;;;;;22.90;82.79;-19758.69;5023999;28;20041;-70
2022/04/13 10:37:18;;;;;;;14.38;6.97;;;;;;;23.17;77.48;-19765.69;5021558;28;20029;-70
2022/04/13 10:39:46;;;;;;;15.05;6.80;;;;;;;22.54;89.27;-19749.63;5008273;28;20033;-70
2022/04/13 10:42:13;;;;;;;14.40;7.05;;;;;;;23.65;90.20;-19777.88;5022896;28;20049;-70
2022/04/13 10:44:53;;;;;;;12.85;6.95;;;;;;;24.11;70.98;-19789.50;5025755;28;20037;-70
2022/04/13 10:47:24;;;;;;;12.98;6.18;;;;;;;23.65;74.31;-19777.88;5025717;28;20036;-70
2022/04/13 10:49:58;;;;;;;14.25;5.88;;;;;;;22.68;85.82;-19753.25;5020575;28;20036;-70
2022/04/13 10:52:32;;;;;;;17.48;6.45;;;;;;;22.24;93.73;-19741.97;5024750;28;20029;-70
2022/04/13 10:55:04;;;;;;;22.73;6.78;;;;;;;21.45;100.00;-19721.88;5018395;28;20084;-69
2022/04/13 10:57:36;;;;;;;15.32;6.85;;;;;;;21.67;100.00;-19727.31;5015612;28;20029;-70
2022/04/13 11:00:05;;;;;;;15.23;6.85;;;;;;;21.88;100.00;-19732.91;5000323;28;20046;-69
2022/04/13 11:02:38;;;;;;;15.57;7.45;;;;;;;21.96;99.15;-19734.84;5016552;28;20037;-69
2022/04/13 11:05:04;;;;;;;15.85;7.47;;;;;;;21.48;100.00;-19722.66;5016205;28;20037;-69
2022/04/13 11:07:30;;;;;;;14.20;6.50;;;;;;;21.38;100.00;-19720.06;5017390;28;20133;-69
2022/04/13 11:09:57;;;;;;;15.48;7.90;;;;;;;21.19;100.00;-19715.25;5012435;28;20022;-69
2022/04/13 11:12:26;;;;;;;16.70;7.28;;;;;;;21.69;100.00;-19727.84;5019384;28;20052;-69